sensor_id;sensor_type;location;lat;lon;timestamp;P1;durP1;ratioP1;P2;durP2;ratioP2
14167;SDS011;7163;50.626;12.922;2022-12-18T00:04:56;5.83;;;5.33;;
14167;SDS011;7163;50.626;12.922;2022-12-18T00:09:57;5.50;;;5.10;;
14167;SDS011;7163;50.626;12.922;2022-12-18T00:14:57;5.40;;;5.00;;
14167;SDS011;7163;50.626;12.922;2022-12-18T00:19:58;5.17;;;4.87;;
14167;SDS011;7163;50.626;12.922;2022-12-18T00:24:58;5.47;;;5.07;;
14167;SDS011;7163;50.626;12.922;2022-12-18T00:29:59;5.00;;;4.70;;
14167;SDS011;7163;50.626;12.922;2022-12-18T00:34:59;6.80;;;5.17;;
14167;SDS011;7163;50.626;12.922;2022-12-18T00:40:00;7.10;;;5.70;;
14167;SDS011;7163;50.626;12.922;2022-12-18T00:45:00;5.73;;;5.30;;
14167;SDS011;7163;50.626;12.922;2022-12-18T00:50:01;5.63;;;5.20;;
14167;SDS011;7163;50.626;12.922;2022-12-18T00:55:02;5.30;;;4.97;;
14167;SDS011;7163;50.626;12.922;2022-12-18T01:00:04;5.87;;;5.40;;
14167;SDS011;7163;50.626;12.922;2022-12-18T01:05:09;5.33;;;4.83;;
14167;SDS011;7163;50.626;12.922;2022-12-18T01:10:11;9.60;;;5.67;;
14167;SDS011;7163;50.626;12.922;2022-12-18T01:15:12;9.67;;;6.93;;
14167;SDS011;7163;50.626;12.922;2022-12-18T01:20:13;5.70;;;5.30;;
14167;SDS011;7163;50.626;12.922;2022-12-18T01:25:14;6.03;;;5.10;;
14167;SDS011;7163;50.626;12.922;2022-12-18T01:30:15;5.00;;;4.70;;
14167;SDS011;7163;50.626;12.922;2022-12-18T01:35:17;5.30;;;5.00;;
14167;SDS011;7163;50.626;12.922;2022-12-18T01:40:17;5.67;;;5.20;;
14167;SDS011;7163;50.626;12.922;2022-12-18T01:50:19;5.85;;;5.20;;
14167;SDS011;7163;50.626;12.922;2022-12-18T01:55:25;5.97;;;5.47;;
14167;SDS011;7163;50.626;12.922;2022-12-18T02:00:28;6.73;;;5.37;;
14167;SDS011;7163;50.626;12.922;2022-12-18T02:26:26;5.33;;;5.00;;
14167;SDS011;7163;50.626;12.922;2022-12-18T02:31:30;5.00;;;4.70;;
14167;SDS011;7163;50.626;12.922;2022-12-18T02:36:34;5.87;;;5.47;;
14167;SDS011;7163;50.626;12.922;2022-12-18T02:41:36;5.10;;;4.80;;
14167;SDS011;7163;50.626;12.922;2022-12-18T02:46:38;5.07;;;4.77;;
14167;SDS011;7163;50.626;12.922;2022-12-18T02:51:51;5.27;;;4.93;;
14167;SDS011;7163;50.626;12.922;2022-12-18T02:56:54;5.20;;;4.90;;
14167;SDS011;7163;50.626;12.922;2022-12-18T03:01:57;5.70;;;5.20;;
14167;SDS011;7163;50.626;12.922;2022-12-18T03:07:05;5.40;;;5.00;;
14167;SDS011;7163;50.626;12.922;2022-12-18T03:12:17;5.23;;;4.93;;
14167;SDS011;7163;50.626;12.922;2022-12-18T03:17:23;5.17;;;4.87;;
14167;SDS011;7163;50.626;12.922;2022-12-18T03:22:26;5.50;;;5.10;;
14167;SDS011;7163;50.626;12.922;2022-12-18T03:27:28;8.10;;;5.53;;
14167;SDS011;7163;50.626;12.922;2022-12-18T03:32:30;5.60;;;5.13;;
14167;SDS011;7163;50.626;12.922;2022-12-18T03:37:41;5.37;;;5.07;;
14167;SDS011;7163;50.626;12.922;2022-12-18T03:42:48;5.50;;;5.20;;
14167;SDS011;7163;50.626;12.922;2022-12-18T03:53:00;5.40;;;5.00;;
14167;SDS011;7163;50.626;12.922;2022-12-18T03:58:04;5.17;;;4.87;;
14167;SDS011;7163;50.626;12.922;2022-12-18T04:03:06;5.73;;;5.33;;
14167;SDS011;7163;50.626;12.922;2022-12-18T04:08:07;5.80;;;5.30;;
14167;SDS011;7163;50.626;12.922;2022-12-18T04:13:08;5.77;;;5.37;;
14167;SDS011;7163;50.626;12.922;2022-12-18T04:18:09;5.57;;;5.23;;
14167;SDS011;7163;50.626;12.922;2022-12-18T04:23:09;6.70;;;5.87;;
14167;SDS011;7163;50.626;12.922;2022-12-18T04:28:10;6.30;;;5.77;;
14167;SDS011;7163;50.626;12.922;2022-12-18T04:33:11;6.63;;;6.03;;
14167;SDS011;7163;50.626;12.922;2022-12-18T04:38:11;5.87;;;5.47;;
14167;SDS011;7163;50.626;12.922;2022-12-18T04:43:12;5.93;;;5.43;;
14167;SDS011;7163;50.626;12.922;2022-12-18T04:48:14;6.30;;;5.80;;
14167;SDS011;7163;50.626;12.922;2022-12-18T04:53:15;6.40;;;5.80;;
14167;SDS011;7163;50.626;12.922;2022-12-18T04:58:16;6.87;;;6.37;;
14167;SDS011;7163;50.626;12.922;2022-12-18T05:03:16;6.37;;;5.87;;
14167;SDS011;7163;50.626;12.922;2022-12-18T05:08:16;6.60;;;5.60;;
14167;SDS011;7163;50.626;12.922;2022-12-18T05:13:17;5.73;;;5.33;;
14167;SDS011;7163;50.626;12.922;2022-12-18T05:18:18;5.90;;;5.50;;
14167;SDS011;7163;50.626;12.922;2022-12-18T05:23:18;6.07;;;5.57;;
14167;SDS011;7163;50.626;12.922;2022-12-18T05:28:21;9.00;;;7.10;;
14167;SDS011;7163;50.626;12.922;2022-12-18T05:33:22;8.20;;;7.37;;
14167;SDS011;7163;50.626;12.922;2022-12-18T05:38:24;6.83;;;6.23;;
14167;SDS011;7163;50.626;12.922;2022-12-18T05:43:26;7.33;;;6.67;;
14167;SDS011;7163;50.626;12.922;2022-12-18T05:48:26;6.20;;;5.70;;
14167;SDS011;7163;50.626;12.922;2022-12-18T05:53:27;6.73;;;6.13;;
14167;SDS011;7163;50.626;12.922;2022-12-18T05:58:27;6.10;;;5.30;;
14167;SDS011;7163;50.626;12.922;2022-12-18T06:03:27;9.93;;;6.47;;
14167;SDS011;7163;50.626;12.922;2022-12-18T06:08:28;6.73;;;6.10;;
14167;SDS011;7163;50.626;12.922;2022-12-18T06:13:28;8.10;;;7.27;;
14167;SDS011;7163;50.626;12.922;2022-12-18T06:18:31;6.83;;;6.27;;
14167;SDS011;7163;50.626;12.922;2022-12-18T06:23:32;7.17;;;6.57;;
14167;SDS011;7163;50.626;12.922;2022-12-18T06:28:33;7.37;;;6.67;;
14167;SDS011;7163;50.626;12.922;2022-12-18T06:33:34;9.70;;;7.67;;
14167;SDS011;7163;50.626;12.922;2022-12-18T06:38:35;10.13;;;7.90;;
14167;SDS011;7163;50.626;12.922;2022-12-18T06:43:38;16.67;;;8.67;;
14167;SDS011;7163;50.626;12.922;2022-12-18T06:48:38;7.90;;;6.90;;
14167;SDS011;7163;50.626;12.922;2022-12-18T06:53:39;7.77;;;6.87;;
14167;SDS011;7163;50.626;12.922;2022-12-18T06:58:39;8.03;;;6.70;;
14167;SDS011;7163;50.626;12.922;2022-12-18T07:03:40;7.00;;;6.33;;
14167;SDS011;7163;50.626;12.922;2022-12-18T07:08:41;7.40;;;6.70;;
14167;SDS011;7163;50.626;12.922;2022-12-18T07:13:42;14.47;;;8.50;;
14167;SDS011;7163;50.626;12.922;2022-12-18T07:18:43;20.60;;;11.00;;
14167;SDS011;7163;50.626;12.922;2022-12-18T07:23:44;13.77;;;9.50;;
14167;SDS011;7163;50.626;12.922;2022-12-18T07:28:48;13.40;;;8.57;;
14167;SDS011;7163;50.626;12.922;2022-12-18T07:33:49;16.83;;;10.83;;
14167;SDS011;7163;50.626;12.922;2022-12-18T07:38:52;23.43;;;12.50;;
14167;SDS011;7163;50.626;12.922;2022-12-18T07:43:52;138.87;;;45.43;;
14167;SDS011;7163;50.626;12.922;2022-12-18T07:48:53;112.13;;;36.17;;
14167;SDS011;7163;50.626;12.922;2022-12-18T07:53:53;47.43;;;19.50;;
14167;SDS011;7163;50.626;12.922;2022-12-18T07:58:54;32.17;;;15.70;;
14167;SDS011;7163;50.626;12.922;2022-12-18T08:03:55;273.00;;;74.30;;
14167;SDS011;7163;50.626;12.922;2022-12-18T08:08:56;72.33;;;28.87;;
14167;SDS011;7163;50.626;12.922;2022-12-18T08:13:57;40.40;;;20.47;;
14167;SDS011;7163;50.626;12.922;2022-12-18T08:18:57;53.13;;;22.40;;
14167;SDS011;7163;50.626;12.922;2022-12-18T08:23:59;40.50;;;20.70;;
14167;SDS011;7163;50.626;12.922;2022-12-18T08:29:00;73.67;;;37.27;;
14167;SDS011;7163;50.626;12.922;2022-12-18T08:34:00;93.07;;;41.03;;
14167;SDS011;7163;50.626;12.922;2022-12-18T08:39:01;92.17;;;38.03;;
14167;SDS011;7163;50.626;12.922;2022-12-18T08:44:02;73.90;;;37.47;;
14167;SDS011;7163;50.626;12.922;2022-12-18T08:49:20;72.10;;;34.07;;
14167;SDS011;7163;50.626;12.922;2022-12-18T08:54:21;67.33;;;29.77;;
14167;SDS011;7163;50.626;12.922;2022-12-18T08:59:21;65.07;;;29.83;;
14167;SDS011;7163;50.626;12.922;2022-12-18T09:04:23;30.87;;;16.57;;
14167;SDS011;7163;50.626;12.922;2022-12-18T09:09:23;63.33;;;31.53;;
14167;SDS011;7163;50.626;12.922;2022-12-18T09:14:23;50.73;;;26.50;;
14167;SDS011;7163;50.626;12.922;2022-12-18T09:19:24;47.43;;;24.23;;
14167;SDS011;7163;50.626;12.922;2022-12-18T09:24:24;70.60;;;32.93;;
14167;SDS011;7163;50.626;12.922;2022-12-18T09:29:25;31.87;;;16.83;;
14167;SDS011;7163;50.626;12.922;2022-12-18T09:34:25;27.60;;;14.77;;
14167;SDS011;7163;50.626;12.922;2022-12-18T09:39:25;21.23;;;11.83;;
14167;SDS011;7163;50.626;12.922;2022-12-18T09:44:27;32.63;;;17.10;;
14167;SDS011;7163;50.626;12.922;2022-12-18T09:49:29;45.93;;;26.73;;
14167;SDS011;7163;50.626;12.922;2022-12-18T09:54:40;48.43;;;29.63;;
14167;SDS011;7163;50.626;12.922;2022-12-18T09:59:41;44.30;;;25.47;;
14167;SDS011;7163;50.626;12.922;2022-12-18T10:04:43;43.07;;;25.90;;
14167;SDS011;7163;50.626;12.922;2022-12-18T10:09:47;54.60;;;32.63;;
14167;SDS011;7163;50.626;12.922;2022-12-18T10:20:16;34.40;;;21.60;;
14167;SDS011;7163;50.626;12.922;2022-12-18T10:30:40;47.70;;;31.07;;
14167;SDS011;7163;50.626;12.922;2022-12-18T10:35:42;103.33;;;63.77;;
14167;SDS011;7163;50.626;12.922;2022-12-18T10:40:50;55.67;;;32.53;;
14167;SDS011;7163;50.626;12.922;2022-12-18T10:46:01;86.93;;;45.10;;
14167;SDS011;7163;50.626;12.922;2022-12-18T10:51:06;26.33;;;16.70;;
14167;SDS011;7163;50.626;12.922;2022-12-18T10:56:07;24.13;;;15.93;;
14167;SDS011;7163;50.626;12.922;2022-12-18T11:01:17;24.40;;;15.60;;
14167;SDS011;7163;50.626;12.922;2022-12-18T11:06:21;21.53;;;15.23;;
14167;SDS011;7163;50.626;12.922;2022-12-18T11:11:24;18.33;;;13.23;;
14167;SDS011;7163;50.626;12.922;2022-12-18T11:16:25;17.43;;;13.23;;
14167;SDS011;7163;50.626;12.922;2022-12-18T11:21:27;26.07;;;18.00;;
14167;SDS011;7163;50.626;12.922;2022-12-18T11:26:33;14.40;;;10.10;;
14167;SDS011;7163;50.626;12.922;2022-12-18T11:31:37;16.83;;;10.40;;
14167;SDS011;7163;50.626;12.922;2022-12-18T11:36:46;20.80;;;12.20;;
14167;SDS011;7163;50.626;12.922;2022-12-18T11:52:39;19.57;;;11.83;;
14167;SDS011;7163;50.626;12.922;2022-12-18T12:03:13;21.10;;;13.60;;
14167;SDS011;7163;50.626;12.922;2022-12-18T12:14:20;18.77;;;12.27;;
14167;SDS011;7163;50.626;12.922;2022-12-18T12:24:43;14.67;;;9.60;;
14167;SDS011;7163;50.626;12.922;2022-12-18T12:30:26;16.67;;;10.37;;
14167;SDS011;7163;50.626;12.922;2022-12-18T12:40:26;16.07;;;9.73;;
14167;SDS011;7163;50.626;12.922;2022-12-18T12:46:03;19.30;;;10.73;;
14167;SDS011;7163;50.626;12.922;2022-12-18T12:51:25;17.90;;;9.50;;
14167;SDS011;7163;50.626;12.922;2022-12-18T12:56:39;14.87;;;8.47;;
14167;SDS011;7163;50.626;12.922;2022-12-18T13:02:01;18.07;;;9.60;;
14167;SDS011;7163;50.626;12.922;2022-12-18T13:07:10;19.80;;;9.50;;
14167;SDS011;7163;50.626;12.922;2022-12-18T13:12:14;19.87;;;10.20;;
14167;SDS011;7163;50.626;12.922;2022-12-18T13:17:34;15.70;;;8.60;;
14167;SDS011;7163;50.626;12.922;2022-12-18T13:22:53;15.57;;;9.10;;
14167;SDS011;7163;50.626;12.922;2022-12-18T13:27:57;26.50;;;13.03;;
14167;SDS011;7163;50.626;12.922;2022-12-18T13:38:23;23.40;;;12.33;;
14167;SDS011;7163;50.626;12.922;2022-12-18T13:48:47;42.47;;;21.63;;
14167;SDS011;7163;50.626;12.922;2022-12-18T13:54:21;43.70;;;22.10;;
14167;SDS011;7163;50.626;12.922;2022-12-18T13:59:39;41.53;;;25.13;;
14167;SDS011;7163;50.626;12.922;2022-12-18T14:04:40;93.00;;;36.93;;
14167;SDS011;7163;50.626;12.922;2022-12-18T14:09:45;24.33;;;12.80;;
14167;SDS011;7163;50.626;12.922;2022-12-18T14:14:49;51.60;;;23.60;;
14167;SDS011;7163;50.626;12.922;2022-12-18T14:19:51;26.80;;;12.03;;
14167;SDS011;7163;50.626;12.922;2022-12-18T14:25:05;40.53;;;18.17;;
14167;SDS011;7163;50.626;12.922;2022-12-18T14:30:33;30.80;;;16.97;;
14167;SDS011;7163;50.626;12.922;2022-12-18T14:35:40;42.47;;;26.90;;
14167;SDS011;7163;50.626;12.922;2022-12-18T14:41:03;29.13;;;13.23;;
14167;SDS011;7163;50.626;12.922;2022-12-18T14:46:05;23.30;;;12.50;;
14167;SDS011;7163;50.626;12.922;2022-12-18T14:51:24;20.77;;;10.53;;
14167;SDS011;7163;50.626;12.922;2022-12-18T14:56:27;43.43;;;26.67;;
14167;SDS011;7163;50.626;12.922;2022-12-18T15:01:34;31.73;;;17.27;;
14167;SDS011;7163;50.626;12.922;2022-12-18T15:06:37;40.27;;;19.37;;
14167;SDS011;7163;50.626;12.922;2022-12-18T15:16:40;26.23;;;11.20;;
14167;SDS011;7163;50.626;12.922;2022-12-18T15:21:42;20.20;;;10.23;;
14167;SDS011;7163;50.626;12.922;2022-12-18T15:26:42;20.30;;;10.30;;
14167;SDS011;7163;50.626;12.922;2022-12-18T15:31:43;21.00;;;9.63;;
14167;SDS011;7163;50.626;12.922;2022-12-18T15:36:43;21.30;;;10.87;;
14167;SDS011;7163;50.626;12.922;2022-12-18T15:41:44;27.77;;;12.10;;
14167;SDS011;7163;50.626;12.922;2022-12-18T15:47:08;41.80;;;19.80;;
14167;SDS011;7163;50.626;12.922;2022-12-18T15:52:11;41.43;;;20.97;;
14167;SDS011;7163;50.626;12.922;2022-12-18T15:57:12;42.93;;;20.67;;
14167;SDS011;7163;50.626;12.922;2022-12-18T16:02:25;36.10;;;16.83;;
14167;SDS011;7163;50.626;12.922;2022-12-18T16:07:25;35.27;;;17.13;;
14167;SDS011;7163;50.626;12.922;2022-12-18T16:12:26;37.93;;;18.20;;
14167;SDS011;7163;50.626;12.922;2022-12-18T16:17:27;26.17;;;13.47;;
14167;SDS011;7163;50.626;12.922;2022-12-18T16:22:28;42.37;;;15.63;;
14167;SDS011;7163;50.626;12.922;2022-12-18T16:27:31;16.33;;;8.63;;
14167;SDS011;7163;50.626;12.922;2022-12-18T16:32:32;20.33;;;9.27;;
14167;SDS011;7163;50.626;12.922;2022-12-18T16:37:33;20.87;;;8.93;;
14167;SDS011;7163;50.626;12.922;2022-12-18T16:42:34;33.03;;;14.13;;
14167;SDS011;7163;50.626;12.922;2022-12-18T16:47:35;46.87;;;17.90;;
14167;SDS011;7163;50.626;12.922;2022-12-18T16:52:35;47.47;;;19.87;;
14167;SDS011;7163;50.626;12.922;2022-12-18T16:57:36;39.67;;;18.30;;
14167;SDS011;7163;50.626;12.922;2022-12-18T17:02:37;67.57;;;27.13;;
14167;SDS011;7163;50.626;12.922;2022-12-18T17:07:38;142.67;;;50.20;;
14167;SDS011;7163;50.626;12.922;2022-12-18T17:12:38;130.00;;;55.83;;
14167;SDS011;7163;50.626;12.922;2022-12-18T17:17:39;47.53;;;22.93;;
14167;SDS011;7163;50.626;12.922;2022-12-18T17:22:39;39.53;;;17.07;;
14167;SDS011;7163;50.626;12.922;2022-12-18T17:27:40;33.13;;;15.90;;
14167;SDS011;7163;50.626;12.922;2022-12-18T17:32:41;57.33;;;27.77;;
14167;SDS011;7163;50.626;12.922;2022-12-18T17:37:41;27.30;;;13.90;;
14167;SDS011;7163;50.626;12.922;2022-12-18T17:42:42;42.50;;;18.63;;
14167;SDS011;7163;50.626;12.922;2022-12-18T17:47:42;66.73;;;27.90;;
14167;SDS011;7163;50.626;12.922;2022-12-18T17:52:43;274.50;;;61.97;;
14167;SDS011;7163;50.626;12.922;2022-12-18T17:57:43;76.97;;;26.67;;
14167;SDS011;7163;50.626;12.922;2022-12-18T18:02:44;25.07;;;11.67;;
14167;SDS011;7163;50.626;12.922;2022-12-18T18:07:45;119.00;;;40.03;;
14167;SDS011;7163;50.626;12.922;2022-12-18T18:12:46;23.30;;;12.23;;
14167;SDS011;7163;50.626;12.922;2022-12-18T18:18:05;37.97;;;13.80;;
14167;SDS011;7163;50.626;12.922;2022-12-18T18:23:05;32.37;;;13.90;;
14167;SDS011;7163;50.626;12.922;2022-12-18T18:28:06;22.40;;;9.97;;
14167;SDS011;7163;50.626;12.922;2022-12-18T18:33:08;21.63;;;8.70;;
14167;SDS011;7163;50.626;12.922;2022-12-18T18:38:09;22.83;;;10.67;;
14167;SDS011;7163;50.626;12.922;2022-12-18T18:43:09;22.30;;;10.53;;
14167;SDS011;7163;50.626;12.922;2022-12-18T18:48:10;24.10;;;11.40;;
14167;SDS011;7163;50.626;12.922;2022-12-18T18:53:10;27.57;;;12.40;;
14167;SDS011;7163;50.626;12.922;2022-12-18T18:58:11;20.97;;;10.00;;
14167;SDS011;7163;50.626;12.922;2022-12-18T19:03:12;19.57;;;9.37;;
14167;SDS011;7163;50.626;12.922;2022-12-18T19:08:12;24.83;;;10.07;;
14167;SDS011;7163;50.626;12.922;2022-12-18T19:13:13;30.30;;;17.03;;
14167;SDS011;7163;50.626;12.922;2022-12-18T19:18:24;18.37;;;10.47;;
14167;SDS011;7163;50.626;12.922;2022-12-18T19:23:24;15.93;;;8.13;;
14167;SDS011;7163;50.626;12.922;2022-12-18T19:28:25;16.03;;;8.03;;
14167;SDS011;7163;50.626;12.922;2022-12-18T19:33:28;14.10;;;7.67;;
14167;SDS011;7163;50.626;12.922;2022-12-18T19:38:30;20.37;;;8.43;;
14167;SDS011;7163;50.626;12.922;2022-12-18T19:43:33;20.20;;;9.40;;
14167;SDS011;7163;50.626;12.922;2022-12-18T19:48:35;22.70;;;11.97;;
14167;SDS011;7163;50.626;12.922;2022-12-18T19:53:36;19.73;;;9.37;;
14167;SDS011;7163;50.626;12.922;2022-12-18T19:58:36;17.37;;;9.37;;
14167;SDS011;7163;50.626;12.922;2022-12-18T20:03:37;13.67;;;7.87;;
14167;SDS011;7163;50.626;12.922;2022-12-18T20:08:37;15.50;;;8.07;;
14167;SDS011;7163;50.626;12.922;2022-12-18T20:13:38;19.93;;;8.00;;
14167;SDS011;7163;50.626;12.922;2022-12-18T20:18:39;15.73;;;8.07;;
14167;SDS011;7163;50.626;12.922;2022-12-18T20:23:40;17.07;;;8.07;;
14167;SDS011;7163;50.626;12.922;2022-12-18T20:28:40;15.07;;;8.20;;
14167;SDS011;7163;50.626;12.922;2022-12-18T20:33:42;16.73;;;8.10;;
14167;SDS011;7163;50.626;12.922;2022-12-18T20:38:42;17.57;;;7.93;;
14167;SDS011;7163;50.626;12.922;2022-12-18T20:43:43;17.23;;;8.57;;
14167;SDS011;7163;50.626;12.922;2022-12-18T20:48:44;20.23;;;8.77;;
14167;SDS011;7163;50.626;12.922;2022-12-18T20:53:45;14.80;;;8.57;;
14167;SDS011;7163;50.626;12.922;2022-12-18T20:58:46;19.87;;;10.40;;
14167;SDS011;7163;50.626;12.922;2022-12-18T21:03:47;16.33;;;7.80;;
14167;SDS011;7163;50.626;12.922;2022-12-18T21:08:48;12.47;;;6.37;;
14167;SDS011;7163;50.626;12.922;2022-12-18T21:13:49;12.00;;;6.30;;
14167;SDS011;7163;50.626;12.922;2022-12-18T21:18:49;14.47;;;7.30;;
14167;SDS011;7163;50.626;12.922;2022-12-18T21:23:50;14.87;;;6.83;;
14167;SDS011;7163;50.626;12.922;2022-12-18T21:28:54;17.43;;;8.33;;
14167;SDS011;7163;50.626;12.922;2022-12-18T21:33:57;12.60;;;6.73;;
14167;SDS011;7163;50.626;12.922;2022-12-18T21:38:58;16.57;;;7.20;;
14167;SDS011;7163;50.626;12.922;2022-12-18T21:43:59;14.70;;;7.30;;
14167;SDS011;7163;50.626;12.922;2022-12-18T21:49:06;13.83;;;7.00;;
14167;SDS011;7163;50.626;12.922;2022-12-18T21:54:07;22.07;;;9.40;;
14167;SDS011;7163;50.626;12.922;2022-12-18T21:59:08;11.57;;;6.57;;
14167;SDS011;7163;50.626;12.922;2022-12-18T22:04:08;12.33;;;6.93;;
14167;SDS011;7163;50.626;12.922;2022-12-18T22:09:10;10.80;;;6.37;;
14167;SDS011;7163;50.626;12.922;2022-12-18T22:14:12;13.03;;;6.97;;
14167;SDS011;7163;50.626;12.922;2022-12-18T22:19:14;10.90;;;6.50;;
14167;SDS011;7163;50.626;12.922;2022-12-18T22:24:16;11.77;;;6.03;;
14167;SDS011;7163;50.626;12.922;2022-12-18T22:29:22;12.00;;;6.77;;
14167;SDS011;7163;50.626;12.922;2022-12-18T22:34:42;12.43;;;6.30;;
14167;SDS011;7163;50.626;12.922;2022-12-18T22:39:42;14.03;;;6.50;;
14167;SDS011;7163;50.626;12.922;2022-12-18T22:44:44;11.30;;;6.37;;
14167;SDS011;7163;50.626;12.922;2022-12-18T22:49:45;11.93;;;6.53;;
14167;SDS011;7163;50.626;12.922;2022-12-18T22:54:46;10.93;;;6.53;;
14167;SDS011;7163;50.626;12.922;2022-12-18T22:59:46;12.50;;;6.30;;
14167;SDS011;7163;50.626;12.922;2022-12-18T23:04:47;11.97;;;6.07;;
14167;SDS011;7163;50.626;12.922;2022-12-18T23:09:48;10.57;;;6.33;;
14167;SDS011;7163;50.626;12.922;2022-12-18T23:14:49;10.93;;;5.70;;
14167;SDS011;7163;50.626;12.922;2022-12-18T23:19:50;12.67;;;6.80;;
14167;SDS011;7163;50.626;12.922;2022-12-18T23:24:50;12.80;;;6.80;;
14167;SDS011;7163;50.626;12.922;2022-12-18T23:29:53;11.63;;;6.13;;
14167;SDS011;7163;50.626;12.922;2022-12-18T23:34:54;13.33;;;6.83;;
14167;SDS011;7163;50.626;12.922;2022-12-18T23:39:55;12.20;;;6.47;;
14167;SDS011;7163;50.626;12.922;2022-12-18T23:44:55;11.70;;;6.67;;
14167;SDS011;7163;50.626;12.922;2022-12-18T23:49:56;13.17;;;7.20;;
14167;SDS011;7163;50.626;12.922;2022-12-18T23:54:56;15.73;;;7.63;;
14167;SDS011;7163;50.626;12.922;2022-12-18T23:59:57;23.53;;;9.40;;
